Time;durP1;ratioP1;P1;durP2;ratioP2;P2;SDS_P1;SDS_P2;PMS_P1;PMS_P2;Temp;Humidity;BMP_temperature;BMP_pressure;BME280_temperature;BME280_humidity;BME280_pressure;Samples;Min_cycle;Max_cycle;Signal;HPM_P1;HPM_P2
2021/05/02 00:00:37;;;;;;;12.77;11.57;;;8.10;57.50;;;;;;4960737;28;20207;-88
2021/05/02 00:03:05;;;;;;;12.73;11.53;;;8.10;57.60;;;;;;4960722;28;20456;-87
2021/05/02 00:05:33;;;;;;;12.70;11.60;;;8.00;57.80;;;;;;4977985;28;20174;-87
2021/05/02 00:07:59;;;;;;;12.37;11.17;;;8.70;58.20;;;;;;4960621;28;20414;-87
2021/05/02 00:10:28;;;;;;;14.27;12.60;;;7.70;57.50;;;;;;4977969;28;20417;-87
2021/05/02 00:12:55;;;;;;;15.80;14.30;;;7.40;57.70;;;;;;4960492;28;20479;-87
2021/05/02 00:15:23;;;;;;;14.37;13.07;;;6.30;57.10;;;;;;4977734;28;20437;-86
2021/05/02 00:17:50;;;;;;;13.38;12.13;;;7.10;58.20;;;;;;4960570;28;20413;-87
2021/05/02 00:20:18;;;;;;;13.60;12.30;;;9.60;60.90;;;;;;4977852;28;20257;-87
2021/05/02 00:22:45;;;;;;;15.07;13.77;;;8.10;59.10;;;;;;4960152;28;20604;-87
2021/05/02 00:25:13;;;;;;;12.82;11.57;;;7.40;58.50;;;;;;4960359;28;20429;-87
2021/05/02 00:27:39;;;;;;;14.60;13.32;;;7.40;59.20;;;;;;4960355;28;20170;-87
2021/05/02 00:30:05;;;;;;;16.70;15.00;;;6.80;59.50;;;;;;4977688;28;20173;-87
2021/05/02 00:32:32;;;;;;;14.10;12.80;;;7.20;60.00;;;;;;4959950;28;20499;-87
2021/05/02 00:34:59;;;;;;;15.05;13.60;;;6.70;59.70;;;;;;4960373;28;20475;-87
2021/05/02 00:37:25;;;;;;;14.80;13.27;;;7.20;60.70;;;;;;4960673;28;20170;-87
2021/05/02 00:39:52;;;;;;;14.80;13.25;;;6.70;59.60;;;;;;4960193;28;20473;-87
2021/05/02 00:42:21;;;;;;;15.18;13.18;;;7.10;59.80;;;;;;4959911;28;20176;-87
2021/05/02 00:45:01;;;;;;;16.40;13.73;;;7.00;59.90;;;;;;4977975;28;20297;-88
2021/05/02 00:47:32;;;;;;;17.20;15.27;;;8.50;62.90;;;;;;4978090;28;20209;-87
2021/05/02 00:50:05;;;;;;;15.75;14.10;;;6.60;60.60;;;;;;4959919;28;20396;-88
2021/05/02 00:52:54;;;;;;;18.33;15.07;;;8.20;63.30;;;;;;4959769;28;20174;-87
2021/05/02 00:55:31;;;;;;;16.40;14.45;;;6.80;61.90;;;;;;4966463;28;20210;-87
2021/05/02 00:58:00;;;;;;;15.80;14.20;;;6.80;62.00;;;;;;4977276;28;20174;-88
2021/05/02 01:00:31;;;;;;;17.20;15.10;;;6.70;60.90;;;;;;4977356;28;20249;-87
2021/05/02 01:02:58;;;;;;;16.17;14.48;;;7.40;62.10;;;;;;4977083;28;20775;-87
2021/05/02 01:05:24;;;;;;;16.67;14.95;;;6.50;59.90;;;;;;4975748;28;20652;-87
2021/05/02 01:07:57;;;;;;;17.42;15.27;;;7.20;61.00;;;;;;4959573;28;20185;-88
2021/05/02 01:10:24;;;;;;;17.73;15.90;;;7.90;63.20;;;;;;4976955;28;20257;-87
2021/05/02 01:13:00;;;;;;;18.05;16.13;;;8.10;63.70;;;;;;4959518;28;20649;-88
2021/05/02 01:15:32;;;;;;;19.63;16.48;;;6.80;62.30;;;;;;4977045;28;20190;-87
2021/05/02 01:18:05;;;;;;;20.02;16.85;;;6.70;62.80;;;;;;4959315;28;20177;-87
2021/05/02 01:20:33;;;;;;;20.13;17.20;;;6.60;63.40;;;;;;4976718;28;20201;-87
2021/05/02 01:23:09;;;;;;;19.90;16.17;;;6.30;63.70;;;;;;4976564;28;20732;-87
2021/05/02 01:25:34;;;;;;;22.67;18.27;;;7.10;64.20;;;;;;4976789;28;20165;-87
2021/05/02 01:28:02;;;;;;;19.40;16.90;;;6.80;63.90;;;;;;4959308;28;20563;-87
2021/05/02 01:30:28;;;;;;;22.30;18.88;;;6.70;64.80;;;;;;4976413;28;20281;-87
2021/05/02 01:32:54;;;;;;;22.17;17.93;;;6.80;64.90;;;;;;4976687;28;20282;-87
2021/05/02 01:35:21;;;;;;;21.52;17.90;;;7.00;64.10;;;;;;4976486;28;20594;-87
2021/05/02 01:37:49;;;;;;;20.10;17.90;;;7.10;64.30;;;;;;4959199;28;20633;-88
2021/05/02 01:40:16;;;;;;;21.53;18.00;;;7.10;64.20;;;;;;4959143;28;20186;-87
2021/05/02 01:42:41;;;;;;;22.10;18.90;;;7.10;65.10;;;;;;4958835;28;20433;-88
2021/05/02 01:45:09;;;;;;;24.83;20.57;;;7.10;64.00;;;;;;4958870;28;20836;-88
2021/05/02 01:47:38;;;;;;;23.07;19.17;;;7.10;64.00;;;;;;4958846;28;20182;-87
2021/05/02 01:50:09;;;;;;;21.60;18.60;;;7.10;64.50;;;;;;4958942;28;20951;-87
2021/05/02 01:52:42;;;;;;;21.60;17.57;;;7.10;65.00;;;;;;4976184;28;20978;-86
2021/05/02 01:55:08;;;;;;;21.47;18.50;;;7.10;64.40;;;;;;4976245;28;20440;-87
2021/05/02 01:57:34;;;;;;;19.52;17.45;;;7.20;64.80;;;;;;4976348;28;20445;-87
2021/05/02 02:00:07;;;;;;;21.23;17.53;;;7.10;64.20;;;;;;4958693;28;20181;-87
2021/05/02 02:02:33;;;;;;;19.33;17.10;;;7.10;64.60;;;;;;4975740;28;20185;-87
2021/05/02 02:05:02;;;;;;;19.50;17.50;;;7.20;64.20;;;;;;4975824;28;20456;-87
2021/05/02 02:07:29;;;;;;;23.90;18.70;;;8.20;66.90;;;;;;4975983;28;20414;-87
2021/05/02 02:09:55;;;;;;;23.63;19.87;;;6.90;64.40;;;;;;4958587;28;20461;-87
2021/05/02 02:12:21;;;;;;;21.30;17.40;;;7.00;64.70;;;;;;4975703;28;20623;-87
2021/05/02 02:14:50;;;;;;;21.10;17.30;;;7.50;66.10;;;;;;4958290;28;20359;-87
2021/05/02 02:17:17;;;;;;;24.83;18.90;;;7.10;66.80;;;;;;4975359;28;20413;-87
2021/05/02 02:19:43;;;;;;;23.50;18.20;;;9.30;66.90;;;;;;4975712;28;20422;-88
2021/05/02 02:22:11;;;;;;;21.07;18.47;;;6.90;63.70;;;;;;4958106;28;20826;-87
2021/05/02 02:24:57;;;;;;;21.20;17.87;;;7.20;64.40;;;;;;4958267;28;20452;-87
2021/05/02 02:27:27;;;;;;;19.70;17.15;;;6.70;63.20;;;;;;4975541;28;20402;-87
2021/05/02 02:29:57;;;;;;;21.40;18.00;;;7.00;63.30;;;;;;4975582;28;20680;-87
2021/05/02 02:32:23;;;;;;;21.10;17.40;;;7.40;63.40;;;;;;4975479;28;20384;-87
2021/05/02 02:34:54;;;;;;;19.57;17.47;;;7.50;63.00;;;;;;4975373;28;20217;-87
2021/05/02 02:37:22;;;;;;;20.23;15.10;;;7.00;63.20;;;;;;4975213;28;20501;-87
2021/05/02 02:39:53;;;;;;;19.67;17.43;;;7.90;63.60;;;;;;4958044;28;20520;-88
2021/05/02 02:42:22;;;;;;;18.30;15.67;;;8.90;64.50;;;;;;4958054;28;20991;-87
2021/05/02 02:44:53;;;;;;;19.40;16.23;;;5.90;61.60;;;;;;4975122;28;20410;-87
2021/05/02 02:47:23;;;;;;;20.65;16.27;;;6.80;61.90;;;;;;4975148;28;20811;-87
2021/05/02 02:49:51;;;;;;;21.53;16.27;;;8.10;63.90;;;;;;4975095;28;20162;-88
2021/05/02 02:52:20;;;;;;;19.50;17.40;;;7.00;61.70;;;;;;4957719;28;20425;-88
2021/05/02 02:55:04;;;;;;;19.47;14.77;;;7.10;61.90;;;;;;4957553;28;20477;-87
2021/05/02 02:57:40;;;;;;;18.98;16.30;;;7.60;62.00;;;;;;4957561;28;20463;-87
2021/05/02 03:00:07;;;;;;;22.80;15.50;;;7.60;61.80;;;;;;4957708;28;20174;-87
2021/05/02 03:02:36;;;;;;;16.70;14.67;;;7.60;62.00;;;;;;4974742;28;20626;-88
2021/05/02 03:05:04;;;;;;;19.05;17.13;;;7.60;61.80;;;;;;4974795;28;20409;-87
2021/05/02 03:07:32;;;;;;;18.73;16.67;;;7.60;61.50;;;;;;4974777;28;20166;-88
2021/05/02 03:09:58;;;;;;;16.27;13.90;;;7.50;63.00;;;;;;4974757;28;20720;-87
2021/05/02 03:12:25;;;;;;;19.05;15.65;;;7.60;61.70;;;;;;4957437;28;20272;-87
2021/05/02 03:14:52;;;;;;;15.47;13.90;;;7.60;61.50;;;;;;4957263;28;20209;-87
2021/05/02 03:17:21;;;;;;;14.83;13.40;;;7.70;60.90;;;;;;4957251;28;20420;-87
2021/05/02 03:19:57;;;;;;;16.80;15.10;;;7.70;60.50;;;;;;4974514;28;20413;-88
2021/05/02 03:22:40;;;;;;;18.27;16.37;;;7.70;60.90;;;;;;4957379;28;20461;-87
2021/05/02 03:25:12;;;;;;;19.40;17.30;;;7.50;61.10;;;;;;4974830;28;20437;-87
2021/05/02 03:28:00;;;;;;;21.63;18.30;;;7.40;62.00;;;;;;4974511;28;20802;-87
2021/05/02 03:30:27;;;;;;;24.97;18.07;;;7.20;62.90;;;;;;4974319;28;20405;-87
2021/05/02 03:32:55;;;;;;;24.40;18.80;;;7.20;62.60;;;;;;4974303;28;20418;-87
2021/05/02 03:35:27;;;;;;;22.45;17.73;;;7.20;62.30;;;;;;4974479;28;20639;-88
2021/05/02 03:38:00;;;;;;;19.70;17.37;;;7.20;63.30;;;;;;4956978;28;20530;-88
2021/05/02 03:40:26;;;;;;;22.73;19.10;;;7.20;63.40;;;;;;4956976;28;20425;-87
2021/05/02 03:42:52;;;;;;;23.07;20.27;;;7.30;63.20;;;;;;4974494;28;20827;-87
2021/05/02 03:45:17;;;;;;;21.70;18.23;;;7.30;62.80;;;;;;4957148;28;20532;-86
2021/05/02 03:47:43;;;;;;;24.90;20.70;;;7.10;63.80;;;;;;4974247;28;20409;-86
2021/05/02 03:50:09;;;;;;;26.20;18.27;;;7.10;63.70;;;;;;4957010;28;20201;-88
2021/05/02 03:52:35;;;;;;;25.00;19.10;;;7.10;64.20;;;;;;4956807;28;20644;-87
2021/05/02 03:55:00;;;;;;;25.20;21.27;;;7.20;63.60;;;;;;4974041;28;20527;-87
2021/05/02 03:57:26;;;;;;;26.83;21.07;;;7.20;63.40;;;;;;4956744;28;20173;-87
2021/05/02 03:59:51;;;;;;;23.83;20.37;;;7.10;64.00;;;;;;4974094;28;20178;-87
2021/05/02 04:02:17;;;;;;;26.20;20.67;;;7.10;64.00;;;;;;4956906;28;20392;-86
2021/05/02 04:04:45;;;;;;;25.37;20.77;;;7.00;63.90;;;;;;4957046;28;20178;-87
2021/05/02 04:07:12;;;;;;;25.40;18.93;;;7.00;64.30;;;;;;4974009;28;20401;-87
2021/05/02 04:09:39;;;;;;;25.80;21.33;;;7.20;63.70;;;;;;4974744;28;20504;-86
2021/05/02 04:12:06;;;;;;;26.00;19.00;;;6.40;62.50;;;;;;4956948;28;20264;-87
2021/05/02 04:14:32;;;;;;;27.17;22.40;;;7.10;63.90;;;;;;4956852;28;20472;-87
2021/05/02 04:17:03;;;;;;;23.17;19.70;;;7.00;64.40;;;;;;4974822;28;20733;-87
2021/05/02 04:19:30;;;;;;;25.52;21.17;;;7.10;64.10;;;;;;4976997;28;20453;-87
2021/05/02 04:21:55;;;;;;;24.75;20.45;;;7.10;63.90;;;;;;4957707;28;20615;-87
2021/05/02 04:24:22;;;;;;;25.37;18.13;;;7.00;64.10;;;;;;4977615;28;20167;-87
2021/05/02 04:26:51;;;;;;;24.13;19.83;;;6.90;63.80;;;;;;4979415;28;20624;-88
2021/05/02 04:29:17;;;;;;;25.60;20.83;;;7.20;63.70;;;;;;4987766;28;20421;-86
2021/05/02 04:31:42;;;;;;;22.40;17.97;;;6.90;62.90;;;;;;4976003;28;20839;-87
2021/05/02 04:34:08;;;;;;;24.77;20.63;;;7.30;63.50;;;;;;4973873;28;20198;-88
2021/05/02 04:36:34;;;;;;;24.23;19.87;;;7.20;63.50;;;;;;4956738;28;20170;-88
2021/05/02 04:39:00;;;;;;;26.03;21.30;;;7.10;63.60;;;;;;4974033;28;20181;-88
2021/05/02 04:41:26;;;;;;;24.52;20.58;;;6.50;62.60;;;;;;4959274;28;20170;-87
2021/05/02 04:43:52;;;;;;;29.00;20.87;;;7.10;64.00;;;;;;4960007;28;20697;-88
2021/05/02 04:46:18;;;;;;;19.83;17.37;;;7.10;63.30;;;;;;4959857;28;20533;-87
2021/05/02 04:48:44;;;;;;;22.90;19.00;;;7.20;63.40;;;;;;4959815;28;20181;-87
2021/05/02 04:51:11;;;;;;;26.37;18.50;;;7.30;62.70;;;;;;4959890;28;20935;-87
2021/05/02 04:53:36;;;;;;;24.63;18.40;;;7.30;62.30;;;;;;4959729;28;20209;-88
2021/05/02 04:56:02;;;;;;;24.93;19.47;;;7.40;62.10;;;;;;4977062;28;20428;-87
2021/05/02 04:58:28;;;;;;;24.10;19.40;;;7.30;62.80;;;;;;4959662;28;20186;-86
2021/05/02 05:00:53;;;;;;;20.97;18.70;;;7.20;62.50;;;;;;4959823;28;20512;-87
2021/05/02 05:03:19;;;;;;;25.23;17.67;;;7.10;62.50;;;;;;4976988;28;20607;-87
2021/05/02 05:05:45;;;;;;;19.30;17.30;;;7.20;63.00;;;;;;4977125;28;20178;-87
2021/05/02 05:08:11;;;;;;;22.30;17.13;;;7.10;62.60;;;;;;4974257;28;20437;-87
2021/05/02 05:10:37;;;;;;;22.70;19.03;;;7.10;62.50;;;;;;4973269;28;20178;-87
2021/05/02 05:13:02;;;;;;;23.10;18.73;;;7.20;62.30;;;;;;4959499;28;20426;-86
2021/05/02 05:15:28;;;;;;;23.63;19.00;;;7.00;62.60;;;;;;4957542;29;20740;-86
2021/05/02 05:17:54;;;;;;;23.35;18.13;;;7.20;63.50;;;;;;4940188;29;20178;-87
2021/05/02 05:20:20;;;;;;;21.73;17.60;;;7.20;62.40;;;;;;4957429;29;20200;-87
2021/05/02 05:22:45;;;;;;;21.33;19.03;;;9.30;65.40;;;;;;4939942;29;20692;-87
2021/05/02 05:25:11;;;;;;;21.73;17.50;;;6.40;61.20;;;;;;4940163;29;20235;-87
2021/05/02 05:27:37;;;;;;;19.30;16.80;;;7.20;62.20;;;;;;4939963;29;20266;-86
2021/05/02 05:30:04;;;;;;;19.50;17.00;;;7.20;62.50;;;;;;4957185;29;20776;-87
2021/05/02 05:32:29;;;;;;;21.15;16.17;;;7.20;62.80;;;;;;4957080;29;20192;-86
2021/05/02 05:34:55;;;;;;;22.90;17.70;;;7.30;61.90;;;;;;4956957;29;20217;-86
2021/05/02 05:37:20;;;;;;;20.43;17.13;;;7.10;61.70;;;;;;4956960;29;20253;-87
2021/05/02 05:39:47;;;;;;;18.93;16.90;;;6.70;62.00;;;;;;4957014;29;20180;-86
2021/05/02 05:42:12;;;;;;;20.00;15.68;;;7.10;62.30;;;;;;4956783;29;20284;-86
2021/05/02 05:44:38;;;;;;;22.27;16.17;;;6.70;61.70;;;;;;4956914;29;20183;-86
2021/05/02 05:47:04;;;;;;;17.20;15.27;;;7.10;62.40;;;;;;4956936;29;20171;-85
2021/05/02 05:49:29;;;;;;;22.07;15.80;;;7.20;62.00;;;;;;4955388;29;20203;-86
2021/05/02 05:51:55;;;;;;;20.10;15.13;;;7.30;61.40;;;;;;4955961;28;20170;-86
2021/05/02 05:54:21;;;;;;;25.30;17.67;;;6.60;60.80;;;;;;4956508;29;20302;-88
2021/05/02 05:56:47;;;;;;;25.03;17.00;;;7.10;61.50;;;;;;4939415;29;20414;-86
2021/05/02 05:59:13;;;;;;;26.27;16.00;;;7.20;62.70;;;;;;4956507;29;20445;-87
2021/05/02 06:01:39;;;;;;;20.83;15.63;;;6.90;62.30;;;;;;4939202;29;20918;-86
2021/05/02 06:04:05;;;;;;;24.73;16.20;;;7.30;62.40;;;;;;4956494;29;20243;-86
2021/05/02 06:06:33;;;;;;;18.83;15.50;;;7.20;63.50;;;;;;4939134;29;20422;-86
2021/05/02 06:09:05;;;;;;;28.05;16.98;;;5.90;59.90;;;;;;4939495;29;20957;-86
2021/05/02 06:11:31;;;;;;;19.90;15.20;;;7.30;61.80;;;;;;4956497;29;20167;-88
2021/05/02 06:13:57;;;;;;;22.60;14.60;;;7.40;61.00;;;;;;4959885;29;20541;-88
2021/05/02 06:16:23;;;;;;;18.17;14.17;;;7.40;60.60;;;;;;4950034;29;20182;-89
2021/05/02 06:18:53;;;;;;;18.67;13.03;;;7.60;60.20;;;;;;4959813;29;20765;-88
2021/05/02 06:21:20;;;;;;;18.08;15.10;;;7.70;59.80;;;;;;4940255;29;20486;-88
2021/05/02 06:23:47;;;;;;;15.53;12.47;;;7.80;59.60;;;;;;4959926;29;20560;-89
2021/05/02 06:26:13;;;;;;;12.83;10.20;;;7.90;59.30;;;;;;4940076;29;20422;-88
2021/05/02 06:28:40;;;;;;;16.03;11.97;;;7.60;58.00;;;;;;4956932;29;20768;-88
2021/05/02 06:31:06;;;;;;;8.32;7.53;;;7.70;58.80;;;;;;4956860;29;21563;-89
2021/05/02 06:33:32;;;;;;;12.25;6.65;;;7.90;57.70;;;;;;4966596;28;20244;-89
2021/05/02 06:35:58;;;;;;;6.47;5.87;;;8.10;57.40;;;;;;4970670;28;20221;-89
2021/05/02 06:38:23;;;;;;;6.60;6.00;;;10.30;57.70;;;;;;4957147;29;20820;-89
2021/05/02 06:40:49;;;;;;;5.40;4.70;;;8.50;56.00;;;;;;4939481;29;20174;-89
2021/05/02 06:43:15;;;;;;;5.00;4.70;;;8.60;55.30;;;;;;4939929;29;20276;-89
2021/05/02 06:45:40;;;;;;;6.20;4.33;;;8.90;55.00;;;;;;4957260;29;20175;-89
2021/05/02 06:48:06;;;;;;;4.67;4.03;;;9.00;54.80;;;;;;4615042;28;10000877;-90
2021/05/02 06:50:32;;;;;;;6.70;6.10;;;9.30;54.10;;;;;;4956942;28;20244;-89
2021/05/02 06:52:57;;;;;;;4.37;4.00;;;9.50;53.60;;;;;;4956547;28;20453;-88
2021/05/02 06:55:23;;;;;;;4.60;4.27;;;9.60;53.10;;;;;;4956377;28;20277;-89
2021/05/02 06:57:49;;;;;;;5.67;5.30;;;9.70;52.60;;;;;;4957065;28;20610;-87
2021/05/02 07:00:15;;;;;;;4.87;4.67;;;9.70;52.10;;;;;;4973953;28;20280;-88
2021/05/02 07:02:40;;;;;;;5.20;4.90;;;9.70;52.00;;;;;;4956228;28;20188;-89
2021/05/02 07:05:07;;;;;;;4.97;4.53;;;9.70;52.00;;;;;;4973198;28;20508;-89
2021/05/02 07:07:32;;;;;;;6.80;4.50;;;9.90;52.10;;;;;;4973370;28;20613;-88
2021/05/02 07:09:58;;;;;;;5.17;4.93;;;9.90;51.90;;;;;;4956027;28;20436;-88
2021/05/02 07:12:24;;;;;;;5.17;4.77;;;10.60;51.00;;;;;;4973462;28;20170;-88
2021/05/02 07:14:50;;;;;;;6.27;4.73;;;9.80;51.60;;;;;;4938182;29;20744;-89
2021/05/02 07:17:17;;;;;;;5.10;4.70;;;9.20;51.00;;;;;;4958617;29;20513;-88
2021/05/02 07:19:43;;;;;;;5.10;4.60;;;9.60;51.60;;;;;;4942633;29;20175;-89
2021/05/02 07:22:08;;;;;;;7.23;4.63;;;11.40;52.20;;;;;;4950798;29;20470;-90
2021/05/02 07:24:34;;;;;;;4.23;3.93;;;9.90;51.40;;;;;;4981765;28;20444;-88
2021/05/02 07:27:00;;;;;;;6.57;4.60;;;10.20;50.30;;;;;;4992205;28;20178;-88
2021/05/02 07:29:26;;;;;;;4.10;4.00;;;10.60;49.80;;;;;;4995547;28;20174;-88
2021/05/02 07:31:51;;;;;;;4.47;4.03;;;11.00;49.50;;;;;;4961266;28;20177;-89
2021/05/02 07:34:18;;;;;;;3.93;3.60;;;11.50;48.50;;;;;;4956555;28;20214;-89
2021/05/02 07:36:45;;;;;;;4.87;4.57;;;12.10;47.80;;;;;;4955398;28;20422;-89
2021/05/02 07:39:10;;;;;;;4.90;3.60;;;13.70;47.60;;;;;;4977785;28;20528;-88
2021/05/02 07:41:36;;;;;;;4.50;4.27;;;12.30;46.20;;;;;;4954829;28;20501;-88
2021/05/02 07:44:02;;;;;;;5.07;3.90;;;11.80;46.60;;;;;;4972530;28;20182;-87
2021/05/02 07:46:28;;;;;;;5.13;4.13;;;11.40;46.20;;;;;;4972898;28;20178;-86
2021/05/02 07:48:53;;;;;;;7.10;4.80;;;10.80;47.10;;;;;;4954705;28;20844;-88
2021/05/02 07:51:19;;;;;;;3.60;3.17;;;9.90;48.20;;;;;;4972480;28;20232;-88
2021/05/02 07:53:47;;;;;;;3.63;2.80;;;10.80;47.90;;;;;;4972737;28;20286;-88
2021/05/02 07:56:12;;;;;;;9.17;3.00;;;12.20;46.50;;;;;;4972683;28;20422;-88
2021/05/02 07:58:38;;;;;;;2.77;2.57;;;13.60;42.20;;;;;;4972696;28;20417;-89
2021/05/02 08:01:04;;;;;;;3.37;3.17;;;15.10;41.70;;;;;;4971757;28;20214;-89
2021/05/02 08:03:29;;;;;;;4.80;4.60;;;16.20;39.90;;;;;;4972025;28;20232;-87
2021/05/02 08:05:55;;;;;;;4.33;4.13;;;16.30;38.40;;;;;;4971787;28;20182;-87
2021/05/02 08:08:20;;;;;;;3.90;3.73;;;15.60;38.40;;;;;;4972110;28;20185;-88
2021/05/02 08:10:46;;;;;;;6.50;4.60;;;14.90;39.30;;;;;;4954438;28;20178;-88
2021/05/02 08:13:19;;;;;;;4.97;4.47;;;14.20;40.10;;;;;;4954134;28;20201;-89
2021/05/02 08:15:45;;;;;;;4.60;4.37;;;13.10;42.00;;;;;;4974005;28;20186;-88
2021/05/02 08:18:11;;;;;;;7.80;4.20;;;12.70;42.90;;;;;;4958405;28;20974;-89
2021/05/02 08:20:37;;;;;;;4.20;4.03;;;12.90;43.20;;;;;;4958769;28;20464;-89
2021/05/02 08:23:02;;;;;;;3.70;3.40;;;13.80;42.40;;;;;;4976003;28;20869;-89
2021/05/02 08:25:28;;;;;;;3.07;2.97;;;14.80;41.60;;;;;;4958356;28;20186;-88
2021/05/02 08:27:54;;;;;;;2.97;2.77;;;14.50;40.10;;;;;;4975659;28;20534;-88
2021/05/02 08:30:20;;;;;;;2.77;2.67;;;15.30;38.10;;;;;;4976697;28;20190;-88
2021/05/02 08:32:45;;;;;;;3.10;2.57;;;16.50;36.70;;;;;;4976623;28;20422;-88
2021/05/02 08:35:11;;;;;;;3.33;3.13;;;18.00;36.00;;;;;;4975889;28;20672;-89
2021/05/02 08:37:37;;;;;;;3.13;3.03;;;17.80;32.90;;;;;;4958361;28;20751;-89
2021/05/02 08:40:05;;;;;;;4.07;3.63;;;17.70;31.60;;;;;;4977372;28;20430;-88
2021/05/02 08:42:30;;;;;;;3.03;3.00;;;18.00;31.50;;;;;;4960476;28;20174;-87
2021/05/02 08:44:58;;;;;;;5.93;3.37;;;18.20;31.10;;;;;;4960440;28;20417;-87
2021/05/02 08:47:23;;;;;;;6.33;3.70;;;18.30;30.50;;;;;;4960596;28;20209;-87
2021/05/02 08:49:49;;;;;;;4.10;4.00;;;17.90;30.90;;;;;;4978088;28;20428;-88
2021/05/02 08:52:14;;;;;;;5.67;5.17;;;16.50;32.00;;;;;;4961196;28;20209;-87
2021/05/02 08:54:40;;;;;;;4.50;4.20;;;15.60;34.50;;;;;;4961668;28;20247;-86
2021/05/02 08:57:06;;;;;;;4.80;4.30;;;16.10;35.10;;;;;;4980797;28;20174;-86
2021/05/02 08:59:32;;;;;;;3.87;3.57;;;16.50;33.90;;;;;;4963595;28;21021;-88
2021/05/02 09:01:58;;;;;;;4.63;4.33;;;16.70;33.30;;;;;;4634374;28;10000470;-88
2021/05/02 09:04:24;;;;;;;3.20;3.10;;;17.50;32.00;;;;;;4958012;28;20181;-88
2021/05/02 09:06:50;;;;;;;4.37;3.07;;;18.00;31.20;;;;;;4975885;28;20492;-87
2021/05/02 09:09:16;;;;;;;3.60;3.40;;;17.70;30.20;;;;;;4957856;28;20178;-87
2021/05/02 09:11:45;;;;;;;4.30;4.00;;;18.80;30.40;;;;;;4976620;28;20873;-89
2021/05/02 09:14:18;;;;;;;4.80;4.60;;;18.70;29.80;;;;;;4962157;28;20979;-86
2021/05/02 09:16:55;;;;;;;10.07;5.37;;;17.80;30.70;;;;;;4956865;28;20453;-88
2021/05/02 09:19:25;;;;;;;5.10;4.80;;;16.60;32.40;;;;;;4957494;28;21190;-87
2021/05/02 09:21:53;;;;;;;4.87;4.60;;;14.70;34.50;;;;;;4974597;28;20457;-87
2021/05/02 09:24:31;;;;;;;4.20;4.10;;;14.00;37.00;;;;;;4957236;28;21054;-87
2021/05/02 09:27:13;;;;;;;4.13;3.90;;;14.00;38.00;;;;;;4973557;28;21304;-87
2021/05/02 09:29:41;;;;;;;4.67;4.13;;;14.40;37.90;;;;;;4974987;28;20432;-88
2021/05/02 09:32:08;;;;;;;3.77;3.67;;;15.90;36.40;;;;;;4976650;28;20417;-85
2021/05/02 09:34:35;;;;;;;3.90;3.70;;;17.50;32.10;;;;;;4980809;28;20479;-87
2021/05/02 09:37:06;;;;;;;4.10;3.80;;;16.90;30.50;;;;;;4960510;28;20928;-88
2021/05/02 09:39:36;;;;;;;3.73;3.53;;;16.10;31.60;;;;;;4975912;28;20425;-88
2021/05/02 09:42:04;;;;;;;11.33;4.20;;;15.80;32.40;;;;;;4957290;28;20935;-88
2021/05/02 09:44:47;;;;;;;4.80;3.37;;;15.30;32.90;;;;;;4957755;28;20456;-87
2021/05/02 09:47:30;;;;;;;14.87;5.23;;;14.50;32.30;;;;;;4957414;28;20924;-89
2021/05/02 09:50:19;;;;;;;3.80;2.83;;;14.20;32.20;;;;;;4974568;28;20790;-89
2021/05/02 09:53:02;;;;;;;2.53;2.43;;;15.20;32.10;;;;;;4974707;28;20468;-87
2021/05/02 09:55:34;;;;;;;3.20;3.10;;;16.50;30.00;;;;;;4975136;28;20430;-89
2021/05/02 09:58:06;;;;;;;2.83;2.73;;;16.20;30.00;;;;;;4971105;28;20433;-89
2021/05/02 10:00:48;;;;;;;4.77;3.10;;;15.30;30.70;;;;;;4938746;29;20428;-88
2021/05/02 10:03:16;;;;;;;3.80;3.50;;;14.70;31.40;;;;;;4959984;28;20414;-87
2021/05/02 10:05:57;;;;;;;3.50;3.20;;;14.20;32.00;;;;;;4977180;28;20429;-89
2021/05/02 10:08:25;;;;;;;4.30;3.20;;;14.10;33.00;;;;;;4975212;28;20774;-89
2021/05/02 10:10:53;;;;;;;3.57;3.30;;;15.20;32.60;;;;;;4975645;28;20417;-89
2021/05/02 10:13:19;;;;;;;2.10;2.00;;;16.50;30.20;;;;;;4957017;28;20460;-88
2021/05/02 10:15:45;;;;;;;2.43;2.30;;;18.70;28.10;;;;;;4974015;28;20900;-87
2021/05/02 10:18:10;;;;;;;2.83;2.70;;;19.30;27.50;;;;;;4974237;28;20174;-87
2021/05/02 10:20:36;;;;;;;3.00;2.90;;;18.10;27.60;;;;;;4956935;28;20944;-86
2021/05/02 10:23:03;;;;;;;3.33;3.07;;;16.60;28.30;;;;;;4974252;28;20230;-88
2021/05/02 10:25:29;;;;;;;3.23;2.83;;;15.90;29.20;;;;;;4956932;28;20452;-89
2021/05/02 10:27:55;;;;;;;4.13;3.93;;;15.20;29.50;;;;;;4977404;28;20409;-87
2021/05/02 10:30:32;;;;;;;2.90;2.23;;;14.70;29.70;;;;;;4958553;28;20460;-88
2021/05/02 10:33:10;;;;;;;2.47;2.37;;;14.80;29.90;;;;;;4976589;28;20637;-89
2021/05/02 10:35:46;;;;;;;2.50;2.40;;;14.50;31.00;;;;;;4960166;28;20441;-88
2021/05/02 10:38:14;;;;;;;2.10;2.00;;;14.10;30.90;;;;;;4980084;28;20417;-87
2021/05/02 10:40:41;;;;;;;2.50;2.30;;;13.70;30.70;;;;;;4964692;28;20453;-87
2021/05/02 10:43:25;;;;;;;2.07;1.87;;;13.90;31.60;;;;;;4976671;28;20450;-88
2021/05/02 10:45:51;;;;;;;3.50;2.20;;;13.50;30.40;;;;;;4994432;28;20433;-89
2021/05/02 10:48:35;;;;;;;2.30;2.30;;;13.70;30.60;;;;;;4977189;28;20429;-89
2021/05/02 10:51:02;;;;;;;4.10;2.13;;;13.60;30.60;;;;;;4988704;28;20428;-89
2021/05/02 10:53:28;;;;;;;1.90;1.80;;;13.60;30.50;;;;;;4977931;28;20465;-89
2021/05/02 10:56:06;;;;;;;2.47;2.00;;;13.70;30.40;;;;;;4978304;28;20454;-86
2021/05/02 10:58:36;;;;;;;2.37;2.27;;;13.70;29.70;;;;;;4959181;28;20181;-89
2021/05/02 11:01:23;;;;;;;6.10;3.07;;;13.50;30.20;;;;;;4959779;28;20452;-88
2021/05/02 11:03:52;;;;;;;2.30;2.30;;;13.30;30.30;;;;;;4959272;28;20451;-87
2021/05/02 11:06:39;;;;;;;2.67;2.30;;;13.20;31.00;;;;;;4975809;28;20415;-89
2021/05/02 11:09:12;;;;;;;2.00;2.00;;;12.90;31.70;;;;;;4975888;28;20468;-87
2021/05/02 11:11:42;;;;;;;3.17;2.40;;;12.80;32.10;;;;;;4958758;28;20441;-88
2021/05/02 11:14:11;;;;;;;2.23;2.23;;;12.60;32.80;;;;;;4958818;28;20480;-87
2021/05/02 11:16:42;;;;;;;9.20;2.93;;;12.50;33.00;;;;;;4969184;28;20796;-87
2021/05/02 11:19:12;;;;;;;2.40;2.40;;;12.70;33.20;;;;;;4973282;28;20430;-88
2021/05/02 11:22:11;;;;;;;2.10;2.10;;;12.80;33.20;;;;;;4942748;29;20493;-87
2021/05/02 11:24:40;;;;;;;2.57;2.53;;;13.70;32.20;;;;;;4938564;29;21024;-86
2021/05/02 11:27:14;;;;;;;1.83;1.83;;;14.20;31.50;;;;;;4957247;29;20513;-87
2021/05/02 11:32:26;;;;;;;2.50;2.40;;;14.70;30.60;;;;;;4955389;29;20414;-87
2021/05/02 11:34:52;;;;;;;34.73;26.70;;;14.30;29.80;;;;;;4953649;29;20465;-86
2021/05/02 11:37:38;;;;;;;3.23;3.10;;;13.60;30.90;;;;;;4940124;29;20410;-87
2021/05/02 11:43:02;;;;;;;2.40;2.30;;;13.40;31.10;;;;;;4955719;29;20409;-86
2021/05/02 11:45:44;;;;;;;5.10;4.60;;;13.20;31.20;;;;;;4955719;29;20425;-87
2021/05/02 11:48:18;;;;;;;2.10;2.10;;;13.30;31.30;;;;;;4938810;29;20428;-88
2021/05/02 11:50:45;;;;;;;3.43;1.90;;;13.20;31.90;;;;;;4956597;29;20473;-88
2021/05/02 11:53:11;;;;;;;1.90;1.87;;;12.60;31.50;;;;;;4955775;29;20469;-87
2021/05/02 11:55:41;;;;;;;3.10;2.53;;;12.60;30.90;;;;;;4962307;29;20425;-86
2021/05/02 11:58:14;;;;;;;3.43;3.13;;;13.00;31.70;;;;;;4948917;29;20414;-87
2021/05/02 12:00:46;;;;;;;2.07;1.90;;;12.70;31.60;;;;;;4966137;29;20437;-87
2021/05/02 12:03:18;;;;;;;2.37;2.27;;;12.70;31.20;;;;;;4965328;29;20469;-85
2021/05/02 12:06:18;;;;;;;1.90;1.90;;;12.80;31.50;;;;;;4961050;29;20446;-86
2021/05/02 12:08:46;;;;;;;3.03;3.03;;;13.10;32.40;;;;;;4957036;29;20414;-89
2021/05/02 12:11:12;;;;;;;2.10;2.10;;;13.50;32.70;;;;;;4957289;29;20446;-88
2021/05/02 12:13:43;;;;;;;2.67;2.60;;;12.70;31.20;;;;;;4955582;29;20454;-88
2021/05/02 12:16:10;;;;;;;1.87;1.77;;;12.10;30.70;;;;;;4938644;29;20981;-89
2021/05/02 12:18:55;;;;;;;3.00;1.83;;;12.80;31.50;;;;;;4272675;28;10000715;-88
2021/05/02 12:21:30;;;;;;;2.33;2.23;;;12.80;31.70;;;;;;4938518;29;20210;-90
2021/05/02 12:24:15;;;;;;;2.00;2.00;;;12.90;31.60;;;;;;4937698;29;20532;-92
2021/05/02 12:26:50;;;;;;;1.70;1.70;;;12.90;31.30;;;;;;4957189;28;20915;-90
2021/05/02 12:29:27;;;;;;;2.10;2.10;;;13.30;31.60;;;;;;4937175;28;20473;-88
2021/05/02 12:32:03;;;;;;;1.83;1.83;;;14.10;30.30;;;;;;4937764;29;20461;-91
2021/05/02 12:34:31;;;;;;;2.13;2.13;;;15.80;29.00;;;;;;4940104;29;20487;-89
2021/05/02 12:37:05;;;;;;;2.17;2.17;;;16.70;28.50;;;;;;4938398;29;20418;-88
2021/05/02 12:39:32;;;;;;;2.60;2.40;;;17.90;27.50;;;;;;4955665;28;20413;-89
2021/05/02 12:41:58;;;;;;;2.80;2.67;;;19.60;28.10;;;;;;4956457;28;20818;-90
2021/05/02 12:44:25;;;;;;;70.10;45.87;;;18.10;28.00;;;;;;4938357;29;20512;-90
2021/05/02 12:46:59;;;;;;;2.70;2.57;;;16.10;27.60;;;;;;4957088;28;20246;-89
2021/05/02 12:49:29;;;;;;;2.67;2.50;;;15.70;28.00;;;;;;4938789;29;20450;-91
2021/05/02 12:51:57;;;;;;;2.37;2.27;;;14.60;27.80;;;;;;4937628;29;20914;-89
2021/05/02 12:54:29;;;;;;;3.13;2.37;;;14.30;28.10;;;;;;4954116;28;20552;-91